Tiempo atmosférico en la estación meteorológica de Amorebieta--Etxano, Bizkaia (100 m.)



Fecha
DESCASC
Temp. máxima en grados centígrados (hora)
DESCASC
Temp. mínima en grados centígrados (hora)
DESCASC
Temp. media en grados centígrados
DESCASC
Racha de viento máxima en m/sg (hora)
DESCASC
Velocidad máxima media en intervalos de 10 minutos(hora)
DESCASC
Precipitaciones diarias en mm
DESCASC
Precipitaciones de 00:00 a 06:00 en mm
DESCASC
Precipitaciones de 06:00 a 12:00 en mm
DESCASC
Precipitaciones de 12:00 a 18:00 en mm
DESCASC
Precipitaciones de 18:00 a 24:00 en mm
DESCASC
23-06-2019 26.1 (13:40) 17.4 (04:10) 21.8 8.61 (16:10) 5.83 (14:40) 0 0 0 0 0
22-06-2019 27.7 (15:00) 9.1 (06:20) 18.4 7.22 (16:20) 4.17 (17:50) 0 0 0 0 0
21-06-2019 18.9 (14:20) 12.4 (23:50) 15.6 6.11 (18:20) 3.61 (18:30) 11.4 6.6 4.8 0 0
20-06-2019 19.2 (18:10) 15.3 (00:00) 17.3 6.67 (18:20) 3.33 (18:20) 1 0 1 0 0
19-06-2019 25.4 (12:00) 13.5 (00:00) 19.4 9.44 (12:30) 6.94 (12:30) 0 0 0 0 0
18-06-2019 34.1 (16:10) 13.9 (00:00) 24 14.17 (16:40) 8.89 (16:50) 0 0 0 0 0
17-06-2019 29.5 (14:50) 14.8 (00:00) 22.2 8.89 (19:10) 5.83 (19:10) 0 0 0 0 0
16-06-2019 24 (18:10) 8.2 (00:00) 16.1 8.33 (17:20) 4.72 (19:10) 0 0 0 0 0
15-06-2019 20.8 (14:20) 11.4 (00:00) 16.1 7.78 (18:10) 5.28 (18:10) 0 0 0 0 0
14-06-2019 15.9 (14:10) 10.2 (00:00) 13 6.67 (15:40) 3.89 (15:40) 1.8 0 0 0 1.8
13-06-2019 18.8 (14:00) 7.7 (00:00) 13.2 8.61 (14:40) 5.28 (15:20) 0 0 0 0 0
12-06-2019 18.7 (15:30) 7.8 (00:00) 13.3 9.17 (17:00) 5.28 (16:20) 0 0 0 0 0
11-06-2019 15.9 (19:10) 10.3 (00:00) 13.1 13.61 (17:30) 7.78 (17:20) 12.6 3.8 5.8 1 2
10-06-2019 16.8 (16:00) 10 (00:00) 13.4 6.39 (16:40) 4.17 (11:10) 0.2 0 0 0 0.2
09-06-2019 17.8 (12:30) 12.6 (00:00) 15.2 9.72 (16:00) 5.83 (15:40) 2 0 0 0 2
08-06-2019 20.2 (14:50) 7.2 (00:00) 13.7 10 (15:50) 6.39 (16:20) 0 0 0 0 0
07-06-2019 22 (00:00) 11.6 (00:00) 16.8 15 (01:30) 7.22 (01:30) 0.2 0.2 0 0 0
06-06-2019 25.1 (20:50) 9.4 (00:00) 17.3 13.89 (22:40) 6.67 (22:40) 0 0 0 0 0
05-06-2019 17.3 (17:20) 11.1 (00:00) 14.2 13.33 (14:20) 6.67 (14:30) 9.6 4.4 5 0.2 0
04-06-2019 25.3 (11:50) 13.5 (00:00) 19.4 11.67 (17:20) 7.78 (17:20) 0.8 0 0 0 0.8
03-06-2019 23 (15:50) 12.7 (00:00) 17.8 7.5 (17:10) 4.44 (16:30) 0 0 0 0 0
02-06-2019 30 (14:00) 13.3 (00:00) 21.7 9.17 (15:00) 6.39 (14:50) 0 0 0 0 0
01-06-2019 34.2 (17:20) 12.5 (00:00) 23.4 7.5 (11:30) 4.72 (19:30) 0 0 0 0 0
31-05-2019 27.9 (16:00) 10.4 (00:00) 19.1 7.5 (15:10) 5 (15:00) 0 0 0 0 0
30-05-2019 24.6 (17:10) 7.7 (00:00) 16.2 7.78 (17:30) 4.72 (17:40) 0 0 0 0 0
29-05-2019 18.3 (16:00) 11.1 (00:00) 14.7 6.11 (16:00) 3.33 (16:10) 3 2.4 0.6 0 0
28-05-2019 17.3 (17:50) 11.3 (00:00) 14.3 11.67 (15:50) 6.94 (13:20) 3.6 0.6 1.8 1.2 0
27-05-2019 15.2 (14:20) 12.3 (00:00) 13.8 8.61 (16:00) 4.72 (16:10) 4.6 1 0 3.6 0

Gráficas

Temp. máximas Temp. mínimas Temp. medias Precipitaciones Rachas de viento máximas Velocidades máximas media en intervalos de 10 minutos

Datos horarios

Fecha y hora oficial Temperatura (ºC) Velocidad del viento (km/h) Dirección del viento Racha (km/h) Dirección de racha Precipitación (mm) Presión (hPa) Tendencia (hPa) Humedad (%)
2019-06-25 23:00:00 18.6 7 Oeste 13 Oeste 0 -- -- 92
2019-06-25 22:00:00 18.8 8 Oeste 17 Oeste 0 -- -- 91
2019-06-25 21:00:00 19.3 13 Oeste 23 Noroeste 0 -- -- 88
2019-06-25 20:00:00 20.8 16 Noroeste 25 Noroeste 0 -- -- 83
2019-06-25 19:00:00 22.6 13 Norte 26 Nordeste 0 -- -- 78
2019-06-25 18:00:00 23.3 14 Norte 24 Norte 0 -- -- 76
2019-06-25 17:00:00 23.3 13 Norte 27 Norte 0 -- -- 76
2019-06-25 16:00:00 23 18 Norte 28 Norte 0 -- -- 76
2019-06-25 15:00:00 23.1 15 Norte 26 Nordeste 0 -- -- 75
2019-06-25 14:00:00 24 14 Norte 22 Norte 0 -- -- 72
2019-06-25 13:00:00 23.7 9 Norte 17 Noroeste 0 -- -- 72
2019-06-25 12:00:00 22.5 8 Norte 14 Noroeste 0 -- -- 78
2019-06-25 11:00:00 20.7 4 Noroeste 9 Oeste 0 -- -- 82
2019-06-25 10:00:00 18.2 0 Calma 6 Noroeste 0 -- -- 88
2019-06-25 09:00:00 16.3 0 Calma 3 Noroeste 0 -- -- 97
2019-06-25 08:00:00 14.6 2 Sudeste 4 Sudeste 0 -- -- 99
2019-06-25 07:00:00 14 2 Sudeste 5 Sudeste 0 -- -- 98
2019-06-25 06:00:00 14.4 0 Calma 5 Este 0 -- -- 98
2019-06-25 05:00:00 14.6 2 Sur 6 Sur 0 -- -- 98
2019-06-25 04:00:00 15 3 Sudeste 7 Sudeste 0 -- -- 97
2019-06-25 03:00:00 15.3 4 Sudeste 8 Sudeste 0 -- -- 97
2019-06-25 02:00:00 15.8 4 Sudeste 9 Sudeste 0 -- -- 96
2019-06-25 01:00:00 16.3 3 Sur 6 Sudeste 0 -- -- 95
2019-06-25 00:00:00 16.7 5 Sudeste 8 Sur 0 -- -- 94
2019-06-24 23:00:00 17.5 2 Sudoeste 9 Norte 0 -- -- 91
2019-06-24 22:00:00 18.4 6 Noroeste 18 Oeste 0 -- -- 87
2019-06-24 21:00:00 19 9 Noroeste 31 Noroeste 0 -- -- 85
2019-06-24 20:00:00 19.3 17 Noroeste 29 Oeste 0 -- -- 83
2019-06-24 19:00:00 19.4 16 Noroeste 31 Oeste 0 -- -- 84
2019-06-24 18:00:00 20.8 22 Oeste 36 Oeste 0 -- -- 80
2019-06-24 17:00:00 22.4 20 Noroeste 31 Noroeste 0 -- -- 78
2019-06-24 16:00:00 24.4 14 Oeste 22 Oeste 0 -- -- 76
2019-06-24 15:00:00 23.8 8 Norte 16 Noroeste 0 -- -- 74
2019-06-24 14:00:00 23.9 5 Norte 15 Noroeste 0 -- -- 77
2019-06-24 13:00:00 23.6 8 Oeste 15 Noroeste 0 -- -- 74
2019-06-24 12:00:00 21.8 9 Oeste 20 Noroeste 0 -- -- 78
2019-06-24 11:00:00 19.5 9 Noroeste 16 Noroeste 0 -- -- 85
2019-06-24 10:00:00 19.4 0 Calma 10 Sudeste 0 -- -- 85
2019-06-24 09:00:00 18.1 3 Este 9 Este 0 -- -- 89
2019-06-24 08:00:00 17.4 4 Sudeste 10 Sudeste 0 -- -- 91
2019-06-24 07:00:00 17 2 Sudeste 7 Sur 0 -- -- 92
2019-06-24 06:00:00 17.3 0 Calma 17 Noroeste 0 -- -- 91
2019-06-24 05:00:00 17.3 8 Noroeste 19 Oeste 0 -- -- 91
2019-06-24 04:00:00 17.1 11 Noroeste 18 Noroeste 0 -- -- 90
2019-06-24 03:00:00 17.3 6 Noroeste 15 Noroeste 0 -- -- 89
2019-06-24 02:00:00 17.5 6 Noroeste 11 Noroeste 0 -- -- 89
2019-06-24 01:00:00 17.6 4 Sudoeste 8 Oeste 0 -- -- 88
2019-06-24 00:00:00 18.2 2 Sur 9 Noroeste 0 -- -- 86
2019-06-23 23:00:00 18.9 6 Norte 14 Noroeste 0 -- -- 82
2019-06-23 22:00:00 19.8 4 Noroeste 14 Noroeste 0 -- -- 76
2019-06-23 21:00:00 20.6 9 Noroeste 18 Noroeste 0 -- -- 72
2019-06-23 20:00:00 21.6 7 Noroeste 19 Noroeste 0 -- -- 70
2019-06-23 19:00:00 22.1 10 Noroeste 22 Norte 0 -- -- 66
2019-06-23 18:00:00 24 14 Norte 27 Oeste 0 -- -- 62
2019-06-23 17:00:00 25.1 15 Noroeste 31 Oeste 0 -- -- 63
2019-06-23 16:00:00 23.2 19 Oeste 28 Noroeste 0 -- -- 63
2019-06-23 15:00:00 25.1 19 Noroeste 28 Noroeste 0 -- -- 64
2019-06-23 14:00:00 25.8 11 Noroeste 19 Noroeste 0 -- -- 67
2019-06-23 13:00:00 25.7 13 Noroeste 21 Noroeste 0 -- -- 66
2019-06-23 12:00:00 25.4 6 Noroeste 10 Norte 0 -- -- 65
2019-06-23 11:00:00 23.4 3 Oeste 8 Oeste 0 -- -- 68
2019-06-23 10:00:00 20.8 7 Oeste 17 Noroeste 0 -- -- 79
2019-06-23 09:00:00 19.8 12 Noroeste 26 Noroeste 0 -- -- 79
2019-06-23 08:00:00 18.7 3 Norte 8 Nordeste 0 -- -- 85
2019-06-23 07:00:00 18.8 3 Noroeste 10 Noroeste 0 -- -- 85
2019-06-23 06:00:00 17.9 4 Norte 8 Norte 0 -- -- 92
2019-06-23 05:00:00 17.5 5 Noroeste 10 Noroeste 0 -- -- 95
2019-06-23 04:00:00 17.5 5 Noroeste 9 Norte 0 -- -- 95
2019-06-23 03:00:00 17.9 0 Calma 7 Sur 0 -- -- 94
2019-06-23 02:00:00 18.3 5 Sudeste 9 Sudeste 0 -- -- 93
2019-06-23 01:00:00 19.3 6 Sudeste 10 Sudeste 0 -- -- 90
2019-06-23 00:00:00 19.7 5 Sudeste 8 Sudeste 0 -- -- 90
2019-06-22 23:00:00 20.5 0 Calma 5 Este 0 -- -- 85
2019-06-22 22:00:00 22 2 Sudeste 5 Oeste 0 -- -- 79
2019-06-22 21:00:00 24.3 4 Este 7 Nordeste 0 -- -- 72
2019-06-22 20:00:00 25.3 3 Sudeste 16 Nordeste 0 -- -- 67
2019-06-22 19:00:00 25.5 8 Norte 21 Nordeste 0 -- -- 62
2019-06-22 18:00:00 26 12 Norte 23 Norte 0 -- -- 62
2019-06-22 17:00:00 27.1 11 Norte 26 Nordeste 0 -- -- 59
2019-06-22 16:00:00 27 12 Norte 22 Norte 0 -- -- 57
2019-06-22 15:00:00 27.7 6 Sudeste 14 Norte 0 -- -- 53
2019-06-22 14:00:00 25.9 8 Este 19 Este 0 -- -- 47
2019-06-22 13:00:00 23.8 8 Sudeste 15 Este 0 -- -- 48
2019-06-22 12:00:00 20.9 4 Este 14 Sudeste 0 -- -- 61
2019-06-22 11:00:00 17.8 4 Sudeste 9 Sudeste 0 -- -- 72
2019-06-22 10:00:00 15.4 2 Este 13 Este 0 -- -- 82
2019-06-22 09:00:00 12.9 4 Este 11 Este 0 -- -- 92
2019-06-22 08:00:00 10.2 3 Sudeste 8 Sudeste 0 -- -- 99
2019-06-22 07:00:00 9.3 4 Sur 8 Este 0 -- -- 99
2019-06-22 06:00:00 9.3 4 Sudeste 9 Sudeste 0 -- -- 99
2019-06-22 05:00:00 9.7 3 Sudeste 9 Sudeste 0 -- -- 99
2019-06-22 04:00:00 9.6 3 Sudeste 4 Sur 0 -- -- 98
2019-06-22 03:00:00 10.1 2 Este 4 Este 0 -- -- 97
2019-06-22 02:00:00 10.6 0 Calma 4 Sudeste 0 -- -- 96
2019-06-22 01:00:00 11.3 3 Sur 7 Sudeste 0 -- -- 95
2019-06-22 00:00:00 12.4 3 Sudeste 5 Sudeste 0 -- -- 93
2019-06-21 23:00:00 13.6 2 Oeste 5 Sudoeste 0 -- -- 87
2019-06-21 22:00:00 15.3 3 Sudoeste 15 Norte 0 -- -- 81
2019-06-21 21:00:00 16.7 7 Norte 18 Norte 0 -- -- 77
2019-06-21 20:00:00 17.9 10 Norte 19 Norte 0 -- -- 72
2019-06-21 19:00:00 17.7 7 Norte 22 Norte 0 -- -- 74
2019-06-21 18:00:00 17.5 11 Norte 22 Norte 0 -- -- 75
2019-06-21 17:00:00 17.8 12 Norte 19 Norte 0 -- -- 78
2019-06-21 16:00:00 17.7 7 Norte 14 Noroeste 0 -- -- 77
2019-06-21 15:00:00 17.8 9 Noroeste 18 Noroeste 0 -- -- 77
2019-06-21 14:00:00 17.8 8 Noroeste 17 Noroeste 0 -- -- 77
2019-06-21 13:00:00 17.2 5 Oeste 15 Norte 0 -- -- 83
2019-06-21 12:00:00 17.1 7 Noroeste 13 Noroeste 0 -- -- 80
2019-06-21 11:00:00 15.9 4 Norte 10 Nordeste 0 -- -- 87
2019-06-21 10:00:00 14.8 0 Calma 5 Sudeste 0 -- -- 97
2019-06-21 09:00:00 14 0 Calma 4 Oeste 0 -- -- 99
2019-06-21 08:00:00 13.6 2 Oeste 6 Nordeste 0.4 -- -- 99
2019-06-21 07:00:00 13.8 0 Calma 6 Este 4.4 -- -- 98
2019-06-21 06:00:00 14 0 Calma 9 Noroeste 1 -- -- 98
2019-06-21 05:00:00 14.2 3 Noroeste 6 Norte 0.2 -- -- 98
2019-06-21 04:00:00 14.4 3 Sudoeste 5 Sudoeste 3.8 -- -- 97
2019-06-21 03:00:00 14.9 0 Calma 8 Noroeste 0.8 -- -- 95
2019-06-21 02:00:00 15.2 4 Norte 17 Norte 0.8 -- -- 94
2019-06-21 01:00:00 15.6 2 Nordeste 8 Noroeste 0 -- -- 93
2019-06-21 00:00:00 15.8 2 Sudoeste 12 Nordeste 0 -- -- 92
2019-06-20 23:00:00 16.2 7 Norte 16 Norte 0 -- -- 90
2019-06-20 22:00:00 16.6 10 Norte 18 Norte 0 -- -- 83
2019-06-20 21:00:00 17.2 9 Norte 20 Norte 0 -- -- 84
2019-06-20 20:00:00 18 11 Norte 21 Norte 0 -- -- 79
2019-06-20 19:00:00 18.6 11 Norte 24 Norte 0 -- -- 76
2019-06-20 18:00:00 18.9 6 Norte 21 Nordeste 0 -- -- 78
2019-06-20 17:00:00 18.9 7 Nordeste 17 Norte 0 -- -- 76
2019-06-20 16:00:00 18.6 7 Norte 15 Norte 0 -- -- 77
2019-06-20 15:00:00 18.4 6 Norte 14 Norte 0 -- -- 78
2019-06-20 14:00:00 18.2 6 Sudoeste 10 Sudoeste 0 -- -- 83
2019-06-20 13:00:00 17.2 4 Sudeste 13 Este 0 -- -- 87
2019-06-20 12:00:00 16.8 5 Noroeste 13 Noroeste 0 -- -- 88
2019-06-20 11:00:00 16.2 4 Sudoeste 10 Sudoeste 0 -- -- 94
2019-06-20 10:00:00 15.3 6 Noroeste 14 Noroeste 0.2 -- -- 96
2019-06-20 09:00:00 15.3 4 Norte 14 Nordeste 0.2 -- -- 97
2019-06-20 08:00:00 15.7 6 Noroeste 10 Noroeste 0.6 -- -- 97
2019-06-20 07:00:00 16 0 Calma 10 Noroeste 0 -- -- 95
2019-06-20 06:00:00 16.1 3 Norte 8 Oeste 0 -- -- 93
2019-06-20 05:00:00 16.2 6 Noroeste 11 Noroeste 0 -- -- 91
2019-06-20 04:00:00 16.3 3 Noroeste 13 Norte 0 -- -- 92
2019-06-20 03:00:00 16.3 4 Noroeste 11 Noroeste 0 -- -- 93
2019-06-20 02:00:00 16.3 0 Calma 9 Noroeste 0 -- -- 92
2019-06-20 01:00:00 16.2 3 Este 5 Sudeste 0 -- -- 94
2019-06-20 00:00:00 16.3 0 Calma 7 Sur 0 -- -- 93
2019-06-19 23:00:00 16.7 3 Noroeste 22 Noroeste 0 -- -- 89
2019-06-19 22:00:00 17.9 11 Noroeste 20 Oeste 0 -- -- 84
2019-06-19 21:00:00 18.6 8 Noroeste 17 Oeste 0 -- -- 84
2019-06-19 20:00:00 19.1 10 Noroeste 24 Norte 0 -- -- 77
2019-06-19 19:00:00 20.6 14 Noroeste 25 Noroeste 0 -- -- 72
2019-06-19 18:00:00 22 17 Noroeste 30 Noroeste 0 -- -- 74
2019-06-19 17:00:00 22.9 16 Noroeste 31 Noroeste 0 -- -- 64
2019-06-19 16:00:00 22.5 14 Norte 27 Noroeste 0 -- -- 64
2019-06-19 15:00:00 22.2 9 Noroeste 23 Oeste 0 -- -- 69
2019-06-19 14:00:00 21.1 17 Oeste 28 Oeste 0 -- -- 76
2019-06-19 13:00:00 21.6 19 Noroeste 34 Noroeste 0 -- -- 74
2019-06-19 12:00:00 25.4 10 Oeste 23 Sudoeste 0 -- -- 55
2019-06-19 11:00:00 23.2 9 Sudoeste 19 Oeste 0 -- -- 56
2019-06-19 10:00:00 22.3 8 Este 15 Norte 0 -- -- 60
2019-06-19 09:00:00 17 3 Sur 8 Nordeste 0 -- -- 85
2019-06-19 08:00:00 14.9 0 Calma 13 Sudeste 0 -- -- 91
2019-06-19 07:00:00 13.9 9 Sur 16 Sudeste 0 -- -- 93
2019-06-19 06:00:00 13.7 6 Sudeste 15 Sudeste 0 -- -- 96
2019-06-19 05:00:00 13.6 5 Sur 11 Este 0 -- -- 96
2019-06-19 04:00:00 13.7 6 Sudeste 12 Sudeste 0 -- -- 97
2019-06-19 03:00:00 13.6 4 Sudeste 8 Sudeste 0 -- -- 96
2019-06-19 02:00:00 14.1 3 Sudeste 7 Sudeste 0 -- -- 95
2019-06-19 01:00:00 14.5 3 Sudeste 6 Sudeste 0 -- -- 94
2019-06-19 00:00:00 15.1 2 Sudeste 6 Este 0 -- -- 93
2019-06-18 23:00:00 16 0 Calma 6 Sudeste 0 -- -- 91
2019-06-18 22:00:00 17 3 Sur 10 Norte 0 -- -- 88
2019-06-18 21:00:00 18 5 Noroeste 25 Oeste 0 -- -- 84
2019-06-18 20:00:00 17.9 18 Noroeste 32 Noroeste 0 -- -- 84
2019-06-18 19:00:00 19.7 22 Noroeste 35 Noroeste 0 -- -- 78
2019-06-18 18:00:00 22.4 24 Noroeste 39 Oeste 0 -- -- 72
2019-06-18 17:00:00 25.7 28 Noroeste 51 Noroeste 0 -- -- 61
2019-06-18 16:00:00 33.9 12 Sur 33 Sudoeste 0 -- -- 21
2019-06-18 15:00:00 33 17 Oeste 41 Oeste 0 -- -- 25
2019-06-18 14:00:00 32.1 15 Sudoeste 30 Sur 0 -- -- 28
2019-06-18 13:00:00 30.9 11 Sudeste 26 Sudeste 0 -- -- 33
2019-06-18 12:00:00 28.7 9 Sudeste 28 Este 0 -- -- 39
2019-06-18 11:00:00 26.4 12 Sudeste 31 Sudeste 0 -- -- 42
2019-06-18 10:00:00 20.4 3 Norte 8 Noroeste 0 -- -- 81
2019-06-18 09:00:00 17 2 Noroeste 8 Este 0 -- -- 92
2019-06-18 08:00:00 15 3 Este 9 Este 0 -- -- 97
2019-06-18 07:00:00 14.1 0 Calma 6 Sudeste 0 -- -- 96
2019-06-18 06:00:00 14.8 2 Sur 16 Este 0 -- -- 94
2019-06-18 05:00:00 15.3 8 Sudeste 17 Sudeste 0 -- -- 95
2019-06-18 04:00:00 15.6 3 Sudeste 14 Este 0 -- -- 93
2019-06-18 03:00:00 16 0 Calma 11 Sudeste 0 -- -- 92
2019-06-18 02:00:00 16.2 0 Calma 10 Este 0 -- -- 90
2019-06-18 01:00:00 16.4 4 Nordeste 12 Oeste 0 -- -- 89
2019-06-18 00:00:00 16.5 4 Norte 10 Norte 0 -- -- 89
2019-06-17 23:00:00 16.6 9 Noroeste 16 Noroeste 0 -- -- 89
2019-06-17 22:00:00 16.7 8 Oeste 24 Noroeste 0 -- -- 89
2019-06-17 21:00:00 17.3 16 Noroeste 27 Noroeste 0 -- -- 88
2019-06-17 20:00:00 18.2 14 Noroeste 32 Oeste 0 -- -- 87
2019-06-17 19:00:00 20.4 18 Noroeste 30 Noroeste 0 -- -- 80
2019-06-17 18:00:00 23.7 20 Noroeste 30 Noroeste 0 -- -- 71
2019-06-17 17:00:00 28.3 17 Noroeste 28 Noroeste 0 -- -- 63
2019-06-17 16:00:00 28.6 17 Noroeste 27 Noroeste 0 -- -- 59
2019-06-17 15:00:00 29.4 10 Norte 18 Norte 0 -- -- 54
2019-06-17 14:00:00 28.3 3 Sudeste 12 Nordeste 0 -- -- 53
2019-06-17 13:00:00 25.4 4 Sudoeste 9 Sudeste 0 -- -- 61
2019-06-17 12:00:00 22.3 5 Sur 12 Sudeste 0 -- -- 70
2019-06-17 11:00:00 19.5 6 Sudeste 13 Sudeste 0 -- -- 76
2019-06-17 10:00:00 17.4 7 Sudeste 19 Este 0 -- -- 85
2019-06-17 09:00:00 16.1 7 Sudeste 15 Sudeste 0 -- -- 88
2019-06-17 08:00:00 15.3 4 Sur 8 Sudeste 0 -- -- 91
2019-06-17 07:00:00 14.8 0 Calma 4 Sudeste 0 -- -- 92
2019-06-17 06:00:00 15 3 Sudeste 4 Sudeste 0 -- -- 90
2019-06-17 05:00:00 15.3 0 Calma 5 Sur 0 -- -- 91
2019-06-17 04:00:00 15.6 2 Sur 8 Noroeste 0 -- -- 90
2019-06-17 03:00:00 15.8 4 Noroeste 12 Noroeste 0 -- -- 89
2019-06-17 02:00:00 16.1 8 Noroeste 15 Noroeste 0 -- -- 89
2019-06-17 01:00:00 16.1 11 Noroeste 19 Noroeste 0 -- -- 88
2019-06-17 00:00:00 16.3 14 Noroeste 22 Noroeste 0 -- -- 89
2019-06-16 23:00:00 16.5 12 Noroeste 23 Noroeste 0 -- -- 88
2019-06-16 22:00:00 17.7 15 Noroeste 26 Noroeste 0 -- -- 84
2019-06-16 21:00:00 20.4 14 Noroeste 22 Noroeste 0 -- -- 73
2019-06-16 20:00:00 22.7 3 Nordeste 27 Norte 0 -- -- 66
2019-06-16 19:00:00 23.1 17 Norte 28 Norte 0 -- -- 63
2019-06-16 18:00:00 23.9 15 Norte 30 Norte 0 -- -- 63
2019-06-16 17:00:00 23.4 16 Norte 28 Norte 0 -- -- 65
2019-06-16 16:00:00 23.4 12 Nordeste 27 Nordeste 0 -- -- 66
2019-06-16 15:00:00 23 15 Norte 28 Norte 0 -- -- 67
2019-06-16 14:00:00 22.7 11 Norte 19 Norte 0 -- -- 65
2019-06-16 13:00:00 21.9 5 Sudoeste 14 Sudeste 0 -- -- 60
2019-06-16 12:00:00 19.8 6 Sudeste 16 Sudeste 0 -- -- 66
2019-06-16 11:00:00 18 7 Nordeste 14 Este 0 -- -- 70
2019-06-16 10:00:00 13.9 2 Sudoeste 5 Sudoeste 0 -- -- 87
2019-06-16 09:00:00 10.8 2 Sudoeste 4 Sur 0 -- -- 95
2019-06-16 08:00:00 8.8 2 Sur 4 Sudeste 0 -- -- 98
2019-06-16 07:00:00 8.2 0 Calma 6 Sudeste 0 -- -- 97
2019-06-16 06:00:00 8.4 3 Sudeste 6 Sudeste 0 -- -- 97
2019-06-16 05:00:00 8.7 3 Sudeste 6 Sudeste 0 -- -- 96
2019-06-16 04:00:00 9 0 Calma 5 Este 0 -- -- 95
2019-06-16 03:00:00 9.6 0 Calma 6 Sudeste 0 -- -- 94
2019-06-16 02:00:00 10.3 4 Sudeste 6 Sudeste 0 -- -- 93
2019-06-16 01:00:00 11.2 3 Sudeste 6 Sur 0 -- -- 90
2019-06-16 00:00:00 12.4 0 Calma 5 Este 0 -- -- 86
2019-06-15 23:00:00 13.8 3 Norte 8 Norte 0 -- -- 81
2019-06-15 22:00:00 15.6 3 Oeste 17 Noroeste 0 -- -- 73
2019-06-15 21:00:00 17.6 9 Noroeste 27 Norte 0 -- -- 66
2019-06-15 20:00:00 19 12 Noroeste 27 Norte 0 -- -- 59
2019-06-15 19:00:00 19.1 15 Norte 28 Norte 0 -- -- 56
2019-06-15 18:00:00 19.7 17 Norte 28 Norte 0 -- -- 55
2019-06-15 17:00:00 20 15 Norte 27 Noroeste 0 -- -- 56
2019-06-15 16:00:00 20.3 12 Norte 26 Noroeste 0 -- -- 54
2019-06-15 15:00:00 20.2 10 Norte 25 Noroeste 0 -- -- 56
2019-06-15 14:00:00 20.5 9 Noroeste 22 Oeste 0 -- -- 60
2019-06-15 13:00:00 18.7 5 Norte 17 Oeste 0 -- -- 62
2019-06-15 12:00:00 17.3 4 Norte 11 Norte 0 -- -- 66
2019-06-15 11:00:00 16.2 6 Norte 14 Norte 0 -- -- 75
2019-06-15 10:00:00 14.3 0 Calma 7 Este 0 -- -- 90
2019-06-15 09:00:00 13 3 Sudeste 9 Este 0 -- -- 96
2019-06-15 08:00:00 12 2 Sudeste 6 Este 0 -- -- 100
2019-06-15 07:00:00 11.5 4 Este 9 Este 0 -- -- 100
2019-06-15 06:00:00 11.7 3 Sudeste 5 Sudeste 0 -- -- 99
2019-06-15 05:00:00 11.9 2 Sudeste 4 Sur 0 -- -- 99
2019-06-15 04:00:00 12 0 Calma 5 Este 0 -- -- 99
2019-06-15 03:00:00 12.4 0 Calma 7 Este 0 -- -- 98
2019-06-15 02:00:00 13.1 0 Calma 3 Sudeste 0 -- -- 99
2019-06-15 01:00:00 13.3 0 Calma 5 Nordeste 0 -- -- 99
2019-06-15 00:00:00 13.1 0 Calma 5 Norte 0 -- -- 98
2019-06-14 23:00:00 13.2 0 Calma 3 Sudoeste 0 -- -- 98
2019-06-14 22:00:00 13.1 0 Calma 11 Norte 0 -- -- 97
2019-06-14 21:00:00 13.3 6 Norte 14 Nordeste 0.8 -- -- 97
2019-06-14 20:00:00 13.9 8 Noroeste 17 Norte 1 -- -- 96
2019-06-14 19:00:00 14.7 5 Norte 20 Noroeste 0 -- -- 92
2019-06-14 18:00:00 15.6 9 Oeste 14 Oeste 0 -- -- 85
2019-06-14 17:00:00 15.1 10 Norte 21 Norte 0 -- -- 85
2019-06-14 16:00:00 15.5 12 Norte 24 Norte 0 -- -- 84
2019-06-14 15:00:00 15.6 10 Norte 22 Norte 0 -- -- 83
2019-06-14 14:00:00 15.7 10 Norte 18 Norte 0 -- -- 81
2019-06-14 13:00:00 15.4 8 Norte 17 Norte 0 -- -- 82
2019-06-14 12:00:00 15.2 7 Norte 13 Norte 0 -- -- 82
2019-06-14 11:00:00 15 3 Nordeste 6 Este 0 -- -- 79
2019-06-14 10:00:00 13.8 2 Noroeste 5 Norte 0 -- -- 86
2019-06-14 09:00:00 12.2 0 Calma 3 Norte 0 -- -- 97
2019-06-14 08:00:00 10.8 0 Calma 5 Este 0 -- -- 98
2019-06-14 07:00:00 10.4 0 Calma 3 Este 0 -- -- 98
2019-06-14 06:00:00 10.3 0 Calma 5 Sur 0 -- -- 97
2019-06-14 05:00:00 11 0 Calma 5 Sur 0 -- -- 96
2019-06-14 04:00:00 12 3 Sudeste 4 Sudeste 0 -- -- 96
2019-06-14 03:00:00 12.5 3 Sudeste 4 Sudeste 0 -- -- 96
2019-06-14 02:00:00 12.8 2 Sudeste 4 Sur 0 -- -- 96
2019-06-14 01:00:00 12.9 2 Sudeste 4 Sudeste 0 -- -- 95
2019-06-14 00:00:00 13 2 Este 5 Este 0 -- -- 95
2019-06-13 23:00:00 13.1 0 Calma 13 Noroeste 0 -- -- 93
2019-06-13 22:00:00 13.6 2 Sur 10 Norte 0 -- -- 90
2019-06-13 21:00:00 14.1 6 Norte 19 Noroeste 0 -- -- 86
2019-06-13 20:00:00 15.1 5 Noroeste 21 Noroeste 0 -- -- 78
2019-06-13 19:00:00 15.2 7 Noroeste 24 Norte 0 -- -- 77
2019-06-13 18:00:00 15.2 14 Nordeste 28 Norte 0 -- -- 78
2019-06-13 17:00:00 16.4 13 Norte 31 Norte 0 -- -- 76
2019-06-13 16:00:00 17.6 17 Norte 30 Norte 0 -- -- 74
2019-06-13 15:00:00 18.1 18 Norte 31 Norte 0 -- -- 71
2019-06-13 14:00:00 18.8 14 Norte 26 Norte 0 -- -- 70
2019-06-13 13:00:00 18 9 Norte 22 Norte 0 -- -- 71
2019-06-13 12:00:00 17 9 Norte 14 Norte 0 -- -- 71
2019-06-13 11:00:00 15.6 5 Norte 13 Norte 0 -- -- 74
2019-06-13 10:00:00 13.7 2 Norte 7 Norte 0 -- -- 80
2019-06-13 09:00:00 10.5 0 Calma 6 Sudeste 0 -- -- 94
2019-06-13 08:00:00 9.1 3 Sur 6 Nordeste 0 -- -- 98
2019-06-13 07:00:00 7.7 0 Calma 4 Este 0 -- -- 97
2019-06-13 06:00:00 7.8 2 Sur 5 Este 0 -- -- 97
2019-06-13 05:00:00 8.4 0 Calma 4 Sudeste 0 -- -- 96
2019-06-13 04:00:00 9 0 Calma 5 Este 0 -- -- 96
2019-06-13 03:00:00 9.6 0 Calma 4 Este 0 -- -- 95
2019-06-13 02:00:00 10.1 0 Calma 4 Este 0 -- -- 94
2019-06-13 01:00:00 10.7 0 Calma 5 Este 0 -- -- 91
2019-06-13 00:00:00 11.6 0 Calma 4 Sudoeste 0 -- -- 88
2019-06-12 23:00:00 13 2 Sudoeste 12 Oeste 0 -- -- 81
2019-06-12 22:00:00 14.2 5 Noroeste 20 Noroeste 0 -- -- 74
2019-06-12 21:00:00 15.4 11 Norte 22 Norte 0 -- -- 66
2019-06-12 20:00:00 15.4 15 Norte 27 Noroeste 0 -- -- 63
2019-06-12 19:00:00 16 13 Norte 30 Noroeste 0 -- -- 64
2019-06-12 18:00:00 16.5 16 Noroeste 30 Noroeste 0 -- -- 65
2019-06-12 17:00:00 18 18 Noroeste 33 Noroeste 0 -- -- 61
2019-06-12 16:00:00 17.4 18 Noroeste 30 Noroeste 0 -- -- 61
2019-06-12 15:00:00 18.6 17 Noroeste 26 Noroeste 0 -- -- 60
2019-06-12 14:00:00 17.5 12 Noroeste 19 Noroeste 0 -- -- 55
2019-06-12 13:00:00 16.4 9 Norte 20 Noroeste 0 -- -- 57
2019-06-12 12:00:00 15.6 10 Noroeste 18 Norte 0 -- -- 58
2019-06-12 11:00:00 14.4 12 Noroeste 19 Noroeste 0 -- -- 62
2019-06-12 10:00:00 13 6 Noroeste 13 Norte 0 -- -- 72
2019-06-12 09:00:00 10.6 3 Norte 6 Norte 0 -- -- 88
2019-06-12 08:00:00 9 0 Calma 6 Sudeste 0 -- -- 95
2019-06-12 07:00:00 8.3 2 Este 7 Sudeste 0 -- -- 97
2019-06-12 06:00:00 8.1 3 Sudeste 8 Sudeste 0 -- -- 96
2019-06-12 05:00:00 7.9 2 Este 7 Este 0 -- -- 95
2019-06-12 04:00:00 8.6 2 Sudeste 6 Este 0 -- -- 92
2019-06-12 03:00:00 10.3 4 Este 22 Sudoeste 0 -- -- 85
2019-06-12 02:00:00 12.2 12 Oeste 20 Sudoeste 0 -- -- 69
2019-06-12 01:00:00 12.2 10 Oeste 24 Oeste 0 -- -- 75
2019-06-12 00:00:00 12 8 Oeste 18 Sudoeste 0 -- -- 80
2019-06-11 23:00:00 11.7 6 Oeste 20 Oeste 0 -- -- 83
2019-06-11 22:00:00 11.7 9 Oeste 19 Oeste 0 -- -- 83
2019-06-11 21:00:00 13 15 Oeste 32 Oeste 2 -- -- 84
2019-06-11 20:00:00 14.4 19 Noroeste 39 Noroeste 0 -- -- 73
2019-06-11 19:00:00 15.3 22 Noroeste 43 Norte 0 -- -- 67
2019-06-11 18:00:00 15.8 22 Noroeste 49 Noroeste 0 -- -- 65
2019-06-11 17:00:00 15 27 Noroeste 48 Noroeste 0 -- -- 69
2019-06-11 16:00:00 14.5 22 Noroeste 43 Noroeste 0.2 -- -- 76
2019-06-11 15:00:00 15.1 24 Noroeste 39 Noroeste 0 -- -- 77
2019-06-11 14:00:00 13.2 14 Noroeste 31 Oeste 0.4 -- -- 88
2019-06-11 13:00:00 12.6 18 Noroeste 31 Noroeste 0.4 -- -- 90
2019-06-11 12:00:00 12.4 11 Noroeste 26 Noroeste 1.6 -- -- 89
2019-06-11 11:00:00 12.1 10 Noroeste 21 Oeste 1 -- -- 89
2019-06-11 10:00:00 11.4 7 Oeste 16 Sudoeste 2.2 -- -- 90
2019-06-11 09:00:00 11 6 Norte 11 Norte 0.2 -- -- 97
2019-06-11 08:00:00 10.4 6 Noroeste 13 Noroeste 0.8 -- -- 99
2019-06-11 07:00:00 10.3 0 Calma 9 Norte 0 -- -- 98
2019-06-11 06:00:00 10.4 5 Noroeste 10 Noroeste 0.2 -- -- 99
2019-06-11 05:00:00 10.6 3 Noroeste 7 Norte 0.2 -- -- 98
2019-06-11 04:00:00 10.7 3 Sur 13 Oeste 0.2 -- -- 98
2019-06-11 03:00:00 10.8 8 Noroeste 13 Noroeste 1.4 -- -- 98
2019-06-11 02:00:00 10.8 2 Sudoeste 9 Noroeste 0.6 -- -- 95
2019-06-11 01:00:00 11.2 2 Sudoeste 8 Noroeste 1.2 -- -- 94
2019-06-11 00:00:00 12 2 Sudeste 6 Sudeste 0.2 -- -- 94
2019-06-10 23:00:00 12.3 0 Calma 6 Sudeste 0 -- -- 91
2019-06-10 22:00:00 13.1 3 Sudeste 6 Sudeste 0 -- -- 85
2019-06-10 21:00:00 13.8 2 Noroeste 14 Noroeste 0 -- -- 78
2019-06-10 20:00:00 14 9 Noroeste 17 Norte 0 -- -- 74
2019-06-10 19:00:00 14.4 10 Noroeste 19 Noroeste 0 -- -- 70
2019-06-10 18:00:00 15 12 Noroeste 20 Noroeste 0 -- -- 70
2019-06-10 17:00:00 15.6 12 Noroeste 23 Noroeste 0 -- -- 64
2019-06-10 16:00:00 16.8 12 Oeste 22 Noroeste 0 -- -- 63
2019-06-10 15:00:00 16.6 7 Norte 18 Norte 0 -- -- 61
2019-06-10 14:00:00 15.6 8 Norte 17 Oeste 0 -- -- 67
2019-06-10 13:00:00 15 6 Oeste 17 Noroeste 0 -- -- 71
2019-06-10 12:00:00 13.4 12 Oeste 23 Oeste 0 -- -- 82
2019-06-10 11:00:00 13.6 12 Oeste 20 Oeste 0 -- -- 84
2019-06-10 10:00:00 13 8 Oeste 11 Oeste 0 -- -- 88
2019-06-10 09:00:00 11.4 2 Oeste 4 Noroeste 0 -- -- 100
2019-06-10 08:00:00 10.5 0 Calma 4 Norte 0 -- -- 100
2019-06-10 07:00:00 10 0 Calma 3 Sudoeste 0 -- -- 99
2019-06-10 06:00:00 10.1 0 Calma 4 Este 0 -- -- 98
2019-06-10 05:00:00 10.5 0 Calma 2 Sudeste 0 -- -- 97
2019-06-10 04:00:00 11.4 2 Sudoeste 8 Oeste 0 -- -- 95
2019-06-10 03:00:00 12.4 4 Oeste 9 Noroeste 0 -- -- 96
2019-06-10 02:00:00 12.5 5 Norte 12 Oeste 0 -- -- 97
2019-06-10 01:00:00 12.6 5 Oeste 14 Oeste 0 -- -- 97
2019-06-10 00:00:00 12.6 8 Oeste 13 Noroeste 0.2 -- -- 97
2019-06-09 23:00:00 12.6 3 Oeste 15 Oeste 0 -- -- 97
2019-06-09 22:00:00 12.7 10 Oeste 21 Noroeste 1.2 -- -- 97
2019-06-09 21:00:00 13.2 13 Noroeste 22 Norte 0 -- -- 96
2019-06-09 20:00:00 13.6 12 Noroeste 28 Noroeste 0.2 -- -- 96
2019-06-09 19:00:00 14.4 10 Noroeste 23 Oeste 0.4 -- -- 96
2019-06-09 18:00:00 15.1 12 Noroeste 22 Noroeste 0 -- -- 92
2019-06-09 17:00:00 15.4 13 Oeste 31 Oeste 0 -- -- 87
2019-06-09 16:00:00 16.1 21 Noroeste 35 Norte 0 -- -- 82
2019-06-09 15:00:00 16.8 18 Noroeste 28 Oeste 0 -- -- 81
2019-06-09 14:00:00 17.2 18 Noroeste 28 Noroeste 0 -- -- 80
2019-06-09 13:00:00 17.4 13 Noroeste 26 Oeste 0 -- -- 79
2019-06-09 12:00:00 17.3 10 Noroeste 20 Noroeste 0 -- -- 79
2019-06-09 11:00:00 15.7 10 Noroeste 15 Noroeste 0 -- -- 83
2019-06-09 10:00:00 14.9 7 Noroeste 13 Noroeste 0 -- -- 87
2019-06-09 09:00:00 14.2 4 Oeste 11 Noroeste 0 -- -- 89
2019-06-09 08:00:00 13.6 7 Oeste 14 Oeste 0 -- -- 92
2019-06-09 07:00:00 13.6 7 Oeste 12 Oeste 0 -- -- 89
2019-06-09 06:00:00 13.7 5 Oeste 10 Oeste 0 -- -- 88
2019-06-09 05:00:00 13.9 4 Noroeste 9 Oeste 0 -- -- 87
2019-06-09 04:00:00 13.9 4 Oeste 11 Oeste 0 -- -- 85
2019-06-09 03:00:00 14 5 Oeste 9 Noroeste 0 -- -- 84
2019-06-09 02:00:00 14.1 5 Noroeste 9 Noroeste 0 -- -- 83
2019-06-09 01:00:00 14.2 2 Noroeste 12 Noroeste 0 -- -- 82
2019-06-09 00:00:00 14.4 9 Noroeste 14 Noroeste 0 -- -- 81
2019-06-08 23:00:00 14.6 6 Norte 15 Norte 0 -- -- 81
2019-06-08 22:00:00 14.7 4 Norte 20 Noroeste 0 -- -- 80
2019-06-08 21:00:00 15.1 9 Norte 26 Nordeste 0 -- -- 77
2019-06-08 20:00:00 16.1 11 Norte 28 Nordeste 0 -- -- 72
2019-06-08 19:00:00 16.7 14 Norte 32 Norte 0 -- -- 71
2019-06-08 18:00:00 16.8 19 Norte 35 Norte 0 -- -- 69
2019-06-08 17:00:00 18.1 22 Norte 34 Norte 0 -- -- 63
2019-06-08 16:00:00 19.4 18 Norte 36 Norte 0 -- -- 60
2019-06-08 15:00:00 19.9 13 Norte 34 Norte 0 -- -- 56
2019-06-08 14:00:00 19 11 Norte 26 Nordeste 0 -- -- 60
2019-06-08 13:00:00 17.9 13 Norte 21 Norte 0 -- -- 62
2019-06-08 12:00:00 17.6 6 Nordeste 17 Sudeste 0 -- -- 58
2019-06-08 11:00:00 16.1 6 Este 18 Sudeste 0 -- -- 66
2019-06-08 10:00:00 12.9 2 Sudeste 7 Este 0 -- -- 81
2019-06-08 09:00:00 10 3 Sur 6 Sudeste 0 -- -- 90
2019-06-08 08:00:00 8.4 4 Sudeste 8 Sudeste 0 -- -- 96
2019-06-08 07:00:00 7.3 4 Sudeste 5 Sudeste 0 -- -- 97
2019-06-08 06:00:00 7.5 0 Calma 7 Sur 0 -- -- 95
2019-06-08 05:00:00 7.8 3 Sudeste 5 Sudeste 0 -- -- 94
2019-06-08 04:00:00 8.6 0 Calma 4 Este 0 -- -- 93
2019-06-08 03:00:00 9.6 0 Calma 6 Sudeste 0 -- -- 90
2019-06-08 02:00:00 10.7 4 Sur 9 Sur 0 -- -- 85
2019-06-08 01:00:00 11 4 Sudeste 10 Sudeste 0 -- -- 83
2019-06-08 00:00:00 11.6 5 Sudeste 9 Este 0 -- -- 80
2019-06-07 23:00:00 13.2 3 Sudeste 9 Norte 0 -- -- 73
2019-06-07 22:00:00 14.3 4 Noroeste 17 Norte 0 -- -- 68
2019-06-07 21:00:00 14.8 8 Noroeste 19 Norte 0 -- -- 64
2019-06-07 20:00:00 15.1 7 Norte 27 Noroeste 0 -- -- 64
2019-06-07 19:00:00 15.6 14 Noroeste 30 Noroeste 0 -- -- 61
2019-06-07 18:00:00 16.6 19 Noroeste 35 Noroeste 0 -- -- 60
2019-06-07 17:00:00 16.6 19 Noroeste 38 Norte 0 -- -- 57
2019-06-07 16:00:00 17.4 16 Noroeste 36 Oeste 0 -- -- 56
2019-06-07 15:00:00 19.1 20 Noroeste 35 Noroeste 0 -- -- 50
2019-06-07 14:00:00 17.6 13 Norte 36 Noroeste 0 -- -- 53
2019-06-07 13:00:00 17.8 13 Noroeste 29 Noroeste 0 -- -- 50
2019-06-07 12:00:00 18.8 10 Oeste 27 Oeste 0 -- -- 45
2019-06-07 11:00:00 17.5 12 Sudoeste 34 Oeste 0 -- -- 46
2019-06-07 10:00:00 16.4 19 Sudoeste 48 Sudoeste 0 -- -- 50
2019-06-07 09:00:00 15.5 21 Sudoeste 44 Sur 0 -- -- 50
2019-06-07 08:00:00 14.5 16 Sudoeste 34 Sudoeste 0 -- -- 53
2019-06-07 07:00:00 14.2 6 Sudoeste 35 Sur 0 -- -- 54
2019-06-07 06:00:00 14 13 Sur 37 Sur 0 -- -- 57
2019-06-07 05:00:00 13.3 9 Sudeste 24 Sudeste 0 -- -- 64
2019-06-07 04:00:00 14.2 9 Sur 41 Noroeste 0.2 -- -- 61
2019-06-07 03:00:00 15.8 6 Sudeste 32 Sudoeste 0 -- -- 53
2019-06-07 02:00:00 16.7 6 Sur 54 Sudoeste 0 -- -- 53
2019-06-07 01:00:00 21 22 Oeste 49 Oeste 0 -- -- 48
2019-06-07 00:00:00 22 14 Sudeste 35 Sur 0 -- -- 43
2019-06-06 23:00:00 22.3 15 Sudoeste 50 Oeste 0 -- -- 44
2019-06-06 22:00:00 24.4 9 Sudeste 42 Sudeste 0 -- -- 30
2019-06-06 21:00:00 25 15 Sudeste 34 Sudeste 0 -- -- 30
2019-06-06 20:00:00 23.4 7 Sudeste 21 Este 0 -- -- 35
2019-06-06 19:00:00 23.3 0 Calma 12 Sudeste 0 -- -- 55
2019-06-06 18:00:00 24 6 Sudeste 26 Sudeste 0 -- -- 42
2019-06-06 17:00:00 24.3 17 Sudeste 37 Este 0 -- -- 40
2019-06-06 16:00:00 24.4 18 Sudeste 44 Sudeste 0 -- -- 43
2019-06-06 15:00:00 23 10 Sudeste 35 Sudeste 0 -- -- 46
2019-06-06 14:00:00 22.4 13 Sudeste 32 Sudeste 0 -- -- 46
2019-06-06 13:00:00 20.5 11 Sudeste 22 Este 0 -- -- 50
2019-06-06 12:00:00 17.8 7 Este 23 Este 0 -- -- 64
2019-06-06 11:00:00 15.6 11 Este 22 Este 0 -- -- 64
2019-06-06 10:00:00 13.8 9 Este 19 Este 0 -- -- 75
2019-06-06 09:00:00 11.4 4 Sudeste 9 Este 0 -- -- 89
2019-06-06 08:00:00 9.4 2 Sur 8 Sudeste 0 -- -- 96
2019-06-06 07:00:00 9.5 3 Sudeste 5 Sudeste 0 -- -- 97
2019-06-06 06:00:00 9.8 2 Sur 4 Sur 0 -- -- 96
2019-06-06 05:00:00 10.2 0 Calma 4 Sur 0 -- -- 96
2019-06-06 04:00:00 10.4 4 Sudeste 6 Sudeste 0 -- -- 96
2019-06-06 03:00:00 10.7 2 Sudoeste 4 Este 0 -- -- 94
2019-06-06 02:00:00 11.1 2 Nordeste 4 Nordeste 0 -- -- 93
2019-06-06 01:00:00 11.2 0 Calma 6 Sudeste 0 -- -- 91
2019-06-06 00:00:00 11.1 3 Sur 7 Este 0 -- -- 90
2019-06-05 23:00:00 11.5 3 Este 6 Este 0 -- -- 86
2019-06-05 22:00:00 12.8 2 Sudeste 10 Noroeste 0 -- -- 79
2019-06-05 21:00:00 14 7 Noroeste 19 Norte 0 -- -- 70
2019-06-05 20:00:00 14.6 8 Noroeste 23 Noroeste 0 -- -- 69
2019-06-05 19:00:00 15.5 14 Noroeste 34 Noroeste 0 -- -- 69
2019-06-05 18:00:00 16.2 24 Noroeste 36 Noroeste 0 -- -- 64
2019-06-05 17:00:00 16.8 22 Noroeste 40 Noroeste 0 -- -- 59
2019-06-05 16:00:00 14.4 17 Oeste 42 Noroeste 0 -- -- 76
2019-06-05 15:00:00 15.2 22 Noroeste 48 Noroeste 0 -- -- 71
2019-06-05 14:00:00 14.4 15 Noroeste 28 Noroeste 0 -- -- 81
2019-06-05 13:00:00 13.9 13 Oeste 21 Sudoeste 0.2 -- -- 87
2019-06-05 12:00:00 12.9 4 Noroeste 14 Noroeste 0.6 -- -- 94
2019-06-05 11:00:00 11.9 11 Oeste 20 Oeste 1.2 -- -- 96
2019-06-05 10:00:00 11.9 4 Noroeste 9 Norte 0.4 -- -- 98
2019-06-05 09:00:00 11.6 5 Noroeste 14 Noroeste 1 -- -- 98
2019-06-05 08:00:00 11.4 4 Sudoeste 12 Noroeste 0.6 -- -- 98
2019-06-05 07:00:00 11.7 11 Noroeste 18 Noroeste 1.2 -- -- 98
2019-06-05 06:00:00 11.8 13 Oeste 19 Oeste 0.4 -- -- 97
2019-06-05 05:00:00 12 10 Oeste 14 Norte 0.2 -- -- 97
2019-06-05 04:00:00 12.3 2 Sudoeste 5 Nordeste 2 -- -- 98
2019-06-05 03:00:00 12.7 3 Sur 8 Oeste 1.2 -- -- 96
2019-06-05 02:00:00 12.8 6 Oeste 9 Oeste 0.2 -- -- 95
2019-06-05 01:00:00 13.3 5 Noroeste 13 Noroeste 0.4 -- -- 96
2019-06-05 00:00:00 13.5 3 Norte 5 Nordeste 0 -- -- 96
2019-06-04 23:00:00 13.8 3 Sudeste 18 Norte 0.8 -- -- 93
2019-06-04 22:00:00 14.9 10 Noroeste 18 Norte 0 -- -- 82
2019-06-04 21:00:00 15.6 7 Noroeste 21 Norte 0 -- -- 75
2019-06-04 20:00:00 15.8 13 Noroeste 26 Noroeste 0 -- -- 73
2019-06-04 19:00:00 15.6 7 Norte 40 Noroeste 0 -- -- 73
2019-06-04 18:00:00 15.8 18 Noroeste 42 Noroeste 0 -- -- 81
2019-06-04 17:00:00 19.2 10 Norte 32 Noroeste 0 -- -- 74
2019-06-04 16:00:00 20.3 14 Noroeste 26 Norte 0 -- -- 74
2019-06-04 15:00:00 21.4 14 Norte 29 Noroeste 0 -- -- 69
2019-06-04 14:00:00 22.2 17 Noroeste 31 Noroeste 0 -- -- 68
2019-06-04 13:00:00 20.9 18 Noroeste 35 Norte 0 -- -- 74
2019-06-04 12:00:00 24.1 18 Noroeste 30 Noroeste 0 -- -- 65
2019-06-04 11:00:00 23.2 4 Este 11 Norte 0 -- -- 60
2019-06-04 10:00:00 19.3 3 Norte 10 Noroeste 0 -- -- 82
2019-06-04 09:00:00 16.7 4 Norte 17 Noroeste 0 -- -- 90
2019-06-04 08:00:00 14.7 2 Noroeste 5 Noroeste 0 -- -- 96
2019-06-04 07:00:00 14.1 0 Calma 7 Noroeste 0 -- -- 96
2019-06-04 06:00:00 14.7 4 Noroeste 10 Noroeste 0 -- -- 94
2019-06-04 05:00:00 16 5 Noroeste 9 Noroeste 0 -- -- 90
2019-06-04 04:00:00 17.1 2 Sudeste 7 Sudeste 0 -- -- 88
2019-06-04 03:00:00 17.2 2 Este 5 Este 0 -- -- 88
2019-06-04 02:00:00 17.3 2 Nordeste 4 Nordeste 0 -- -- 87
2019-06-04 01:00:00 17.4 3 Norte 5 Nordeste 0 -- -- 87
2019-06-04 00:00:00 17.6 3 Sudoeste 10 Noroeste 0 -- -- 87
2019-06-03 23:00:00 17.6 7 Noroeste 13 Noroeste 0 -- -- 88
2019-06-03 22:00:00 17.8 5 Noroeste 15 Norte 0 -- -- 86
2019-06-03 21:00:00 18.8 9 Norte 19 Norte 0 -- -- 81
2019-06-03 20:00:00 21.1 12 Norte 23 Norte 0 -- -- 69
2019-06-03 19:00:00 22 13 Norte 24 Norte 0 -- -- 64
2019-06-03 18:00:00 22.8 13 Norte 27 Norte 0 -- -- 61
2019-06-03 17:00:00 22.9 16 Norte 25 Norte 0 -- -- 61
2019-06-03 16:00:00 22.8 14 Norte 24 Nordeste 0 -- -- 62
2019-06-03 15:00:00 22.2 11 Norte 22 Norte 0 -- -- 64
2019-06-03 14:00:00 22.2 14 Norte 26 Norte 0 -- -- 66
2019-06-03 13:00:00 22.2 6 Norte 14 Oeste 0 -- -- 62
2019-06-03 12:00:00 20.5 2 Sur 11 Noroeste 0 -- -- 62
2019-06-03 11:00:00 18.8 4 Norte 12 Noroeste 0 -- -- 73
2019-06-03 10:00:00 16.4 4 Norte 12 Noroeste 0 -- -- 81
2019-06-03 09:00:00 14.7 4 Nordeste 17 Noroeste 0 -- -- 89
2019-06-03 08:00:00 13.9 3 Sur 7 Sudeste 0 -- -- 92
2019-06-03 07:00:00 13 4 Sudeste 7 Sudeste 0 -- -- 93
2019-06-03 06:00:00 12.8 0 Calma 4 Sudeste 0 -- -- 93
2019-06-03 05:00:00 12.9 3 Este 6 Este 0 -- -- 93
2019-06-03 04:00:00 13.2 0 Calma 4 Este 0 -- -- 91
2019-06-03 03:00:00 13.9 0 Calma 6 Sudeste 0 -- -- 89
2019-06-03 02:00:00 14.2 3 Sudeste 8 Este 0 -- -- 88
2019-06-03 01:00:00 14.4 2 Sudeste 3 Sur 0 -- -- 85
2019-06-03 00:00:00 15.3 2 Este 6 Norte 0 -- -- 83
2019-06-02 23:00:00 16.5 3 Oeste 10 Oeste 0 -- -- 78
2019-06-02 22:00:00 18 8 Noroeste 19 Noroeste 0 -- -- 76
2019-06-02 21:00:00 20 11 Noroeste 24 Noroeste 0 -- -- 65
2019-06-02 20:00:00 22.5 15 Noroeste 23 Oeste 0 -- -- 50
2019-06-02 19:00:00 23 12 Oeste 19 Noroeste 0 -- -- 50
2019-06-02 18:00:00 23.7 14 Oeste 28 Oeste 0 -- -- 50
2019-06-02 17:00:00 23.5 18 Noroeste 30 Oeste 0 -- -- 56
2019-06-02 16:00:00 26.3 15 Noroeste 33 Oeste 0 -- -- 49
2019-06-02 15:00:00 27.3 22 Oeste 33 Oeste 0 -- -- 52
2019-06-02 14:00:00 30 5 Nordeste 16 Este 0 -- -- 43
2019-06-02 13:00:00 29.2 6 Este 17 Este 0 -- -- 43
2019-06-02 12:00:00 27.2 3 Sur 14 Este 0 -- -- 46
2019-06-02 11:00:00 23.9 3 Noroeste 10 Sur 0 -- -- 58
2019-06-02 10:00:00 20 3 Sudoeste 7 Sudeste 0 -- -- 73
2019-06-02 09:00:00 16.5 3 Sur 10 Sudeste 0 -- -- 86
2019-06-02 08:00:00 14 3 Sudeste 6 Sudeste 0 -- -- 94
2019-06-02 07:00:00 13.3 0 Calma 6 Sur 0 -- -- 94
2019-06-02 06:00:00 14 5 Sudeste 9 Sudeste 0 -- -- 93
2019-06-02 05:00:00 13.7 5 Sudeste 9 Sudeste 0 -- -- 93
2019-06-02 04:00:00 14.1 0 Calma 6 Sudeste 0 -- -- 91
2019-06-02 03:00:00 14.9 2 Norte 6 Sudeste 0 -- -- 89
2019-06-02 02:00:00 15.9 3 Sudeste 6 Sudeste 0 -- -- 86
2019-06-02 01:00:00 16.9 3 Sudeste 6 Sudeste 0 -- -- 83
2019-06-02 00:00:00 18.4 2 Este 5 Norte 0 -- -- 75
2019-06-01 23:00:00 19.9 2 Noroeste 13 Noroeste 0 -- -- 69
2019-06-01 22:00:00 21.9 7 Norte 21 Noroeste 0 -- -- 62
2019-06-01 21:00:00 24.8 10 Noroeste 25 Noroeste 0 -- -- 59
2019-06-01 20:00:00 28.7 10 Noroeste 23 Noroeste 0 -- -- 50
2019-06-01 19:00:00 31.4 10 Norte 20 Norte 0 -- -- 41
2019-06-01 18:00:00 32.8 11 Norte 17 Norte 0 -- -- 37
2019-06-01 17:00:00 33.5 2 Norte 13 Este 0 -- -- 33
2019-06-01 16:00:00 32.8 4 Este 18 Este 0 -- -- 34
2019-06-01 15:00:00 32.1 9 Este 19 Este 0 -- -- 38
2019-06-01 14:00:00 30.9 12 Este 21 Este 0 -- -- 37
2019-06-01 13:00:00 29.4 9 Sudeste 25 Este 0 -- -- 40
2019-06-01 12:00:00 27.6 11 Este 27 Este 0 -- -- 45
2019-06-01 11:00:00 25.5 8 Este 23 Este 0 -- -- 54
2019-06-01 10:00:00 20.1 2 Norte 9 Este 0 -- -- 77
2019-06-01 09:00:00 16.5 2 Norte 6 Norte 0 -- -- 94
2019-06-01 08:00:00 13.3 0 Calma 4 Norte 0 -- -- 98
2019-06-01 07:00:00 12.5 0 Calma 5 Sudeste 0 -- -- 98
2019-06-01 06:00:00 12.9 3 Sudeste 9 Este 0 -- -- 98
2019-06-01 05:00:00 13.6 2 Este 5 Este 0 -- -- 97
2019-06-01 04:00:00 14 0 Calma 2 Sur 0 -- -- 96
2019-06-01 03:00:00 14.5 0 Calma 6 Sudeste 0 -- -- 94
2019-06-01 02:00:00 15.4 3 Sudeste 8 Sudeste 0 -- -- 93
2019-06-01 01:00:00 16.3 4 Sudeste 8 Este 0 -- -- 89
2019-06-01 00:00:00 17.3 3 Este 5 Este 0 -- -- 87
2019-05-31 23:00:00 18.8 2 Sudeste 4 Este 0 -- -- 81
2019-05-31 22:00:00 21.6 3 Sudeste 5 Sur 0 -- -- 73
2019-05-31 21:00:00 25.3 3 Sur 10 Este 0 -- -- 60
2019-05-31 20:00:00 26.5 7 Nordeste 17 Norte 0 -- -- 54
2019-05-31 19:00:00 27.2 8 Nordeste 25 Norte 0 -- -- 52
2019-05-31 18:00:00 27.3 13 Norte 26 Norte 0 -- -- 52
2019-05-31 17:00:00 27.4 14 Norte 26 Norte 0 -- -- 54
2019-05-31 16:00:00 27.9 17 Norte 27 Norte 0 -- -- 53
2019-05-31 15:00:00 27.3 18 Norte 25 Norte 0 -- -- 56
2019-05-31 14:00:00 27.3 10 Nordeste 19 Norte 0 -- -- 56
2019-05-31 13:00:00 25.7 5 Norte 12 Norte 0 -- -- 61
2019-05-31 12:00:00 23.8 3 Sudeste 13 Este 0 -- -- 60
2019-05-31 11:00:00 20.6 4 Sudeste 9 Este 0 -- -- 74
2019-05-31 10:00:00 16.6 2 Sudoeste 5 Sudeste 0 -- -- 88
2019-05-31 09:00:00 13.5 0 Calma 5 Sudeste 0 -- -- 97
2019-05-31 08:00:00 11.5 0 Calma 4 Norte 0 -- -- 98
2019-05-31 07:00:00 10.7 3 Sudeste 6 Sudeste 0 -- -- 98
2019-05-31 06:00:00 10.8 3 Este 4 Este 0 -- -- 98
2019-05-31 05:00:00 11.3 0 Calma 5 Sudeste 0 -- -- 96
2019-05-31 04:00:00 11.9 2 Este 4 Este 0 -- -- 96
2019-05-31 03:00:00 12.7 2 Este 4 Este 0 -- -- 95
2019-05-31 02:00:00 13.3 0 Calma 5 Este 0 -- -- 93
2019-05-31 01:00:00 14.5 3 Sudeste 8 Este 0 -- -- 90
2019-05-31 00:00:00 15.5 4 Sur 6 Sur 0 -- -- 87
2019-05-30 23:00:00 17.7 2 Sudeste 7 Este 0 -- -- 77
2019-05-30 22:00:00 19.3 2 Este 10 Este 0 -- -- 72
2019-05-30 21:00:00 21.9 2 Sudeste 14 Norte 0 -- -- 65
2019-05-30 20:00:00 22.7 8 Noroeste 21 Norte 0 -- -- 58
2019-05-30 19:00:00 23 7 Norte 20 Nordeste 0 -- -- 59
2019-05-30 18:00:00 23.5 13 Norte 28 Norte 0 -- -- 56
2019-05-30 17:00:00 24.5 10 Norte 25 Norte 0 -- -- 56
2019-05-30 16:00:00 23.9 13 Norte 27 Norte 0 -- -- 54
2019-05-30 15:00:00 23.8 11 Norte 21 Norte 0 -- -- 54
2019-05-30 14:00:00 23.7 6 Noroeste 15 Norte 0 -- -- 49
2019-05-30 13:00:00 22.4 5 Sudeste 18 Este 0 -- -- 51
2019-05-30 12:00:00 20.6 11 Este 19 Este 0 -- -- 52
2019-05-30 11:00:00 17.9 9 Este 15 Este 0 -- -- 58
2019-05-30 10:00:00 14.5 5 Sudeste 11 Este 0 -- -- 80
2019-05-30 09:00:00 11.2 3 Sudeste 9 Este 0 -- -- 93
2019-05-30 08:00:00 8.7 4 Sudeste 9 Sudeste 0 -- -- 100
2019-05-30 07:00:00 7.8 5 Sudeste 8 Sudeste 0 -- -- 99
2019-05-30 06:00:00 7.8 0 Calma 7 Sudeste 0 -- -- 98
2019-05-30 05:00:00 8.4 4 Sudeste 6 Sur 0 -- -- 98
2019-05-30 04:00:00 8.9 0 Calma 8 Sudeste 0 -- -- 98
2019-05-30 03:00:00 9.4 5 Sudeste 10 Sudeste 0 -- -- 98
2019-05-30 02:00:00 9.7 4 Sudeste 6 Sudeste 0 -- -- 97
2019-05-30 01:00:00 10.4 2 Este 7 Sudeste 0 -- -- 95
2019-05-30 00:00:00 11.1 4 Este 6 Este 0 -- -- 94
2019-05-29 23:00:00 12.2 3 Sudeste 6 Este 0 -- -- 90
2019-05-29 22:00:00 14.1 3 Sudeste 7 Sudoeste 0 -- -- 83
2019-05-29 21:00:00 16.8 2 Norte 18 Nordeste 0 -- -- 73
2019-05-29 20:00:00 17.4 8 Norte 18 Norte 0 -- -- 67
2019-05-29 19:00:00 17.5 10 Nordeste 21 Norte 0 -- -- 67
2019-05-29 18:00:00 17.3 9 Norte 18 Norte 0 -- -- 69
2019-05-29 17:00:00 17.5 9 Norte 21 Noroeste 0 -- -- 64
2019-05-29 16:00:00 18.3 11 Noroeste 22 Noroeste 0 -- -- 65
2019-05-29 15:00:00 16.4 4 Nordeste 9 Norte 0 -- -- 70
2019-05-29 14:00:00 15.9 5 Nordeste 10 Este 0 -- -- 72
2019-05-29 13:00:00 15.6 7 Noroeste 13 Noroeste 0 -- -- 74
2019-05-29 12:00:00 15.2 4 Oeste 11 Sur 0 -- -- 79
2019-05-29 11:00:00 14.2 3 Oeste 8 Norte 0 -- -- 85
2019-05-29 10:00:00 13.4 2 Sudoeste 8 Noroeste 0 -- -- 94
2019-05-29 09:00:00 12.6 3 Sudoeste 6 Norte 0 -- -- 99
2019-05-29 08:00:00 11.9 3 Norte 12 Noroeste 0 -- -- 100
2019-05-29 07:00:00 11.5 6 Noroeste 15 Oeste 0.6 -- -- 99
2019-05-29 06:00:00 11.4 5 Noroeste 16 Noroeste 1.4 -- -- 98
2019-05-29 05:00:00 11.7 6 Noroeste 14 Noroeste 0.6 -- -- 96
2019-05-29 04:00:00 12.1 9 Oeste 15 Oeste 0.4 -- -- 93
2019-05-29 03:00:00 12.6 9 Oeste 18 Oeste 0 -- -- 90
2019-05-29 02:00:00 12.8 6 Norte 14 Oeste 0 -- -- 90
2019-05-29 01:00:00 13 9 Noroeste 20 Oeste 0 -- -- 88
2019-05-29 00:00:00 12.8 11 Noroeste 20 Noroeste 0 -- -- 90
2019-05-28 23:00:00 13.2 12 Oeste 24 Oeste 0 -- -- 86
2019-05-28 22:00:00 13.6 11 Noroeste 30 Noroeste 0 -- -- 83
2019-05-28 21:00:00 14.1 11 Noroeste 37 Noroeste 0 -- -- 79
2019-05-28 20:00:00 15.2 13 Noroeste 38 Noroeste 0 -- -- 77
2019-05-28 19:00:00 15.2 24 Noroeste 41 Noroeste 0 -- -- 75
2019-05-28 18:00:00 16.7 19 Noroeste 40 Noroeste 0 -- -- 69
2019-05-28 17:00:00 16.3 20 Noroeste 34 Noroeste 0 -- -- 74
2019-05-28 16:00:00 15.5 21 Noroeste 42 Noroeste 0 -- -- 77
2019-05-28 15:00:00 14.7 18 Noroeste 32 Noroeste 0 -- -- 82
2019-05-28 14:00:00 13.3 14 Oeste 37 Oeste 1.2 -- -- 94
2019-05-28 13:00:00 14.5 20 Noroeste 32 Oeste 0 -- -- 82
2019-05-28 12:00:00 13.8 10 Oeste 31 Noroeste 0.2 -- -- 90
2019-05-28 11:00:00 13.3 8 Noroeste 15 Noroeste 0 -- -- 96
2019-05-28 10:00:00 12 7 Oeste 28 Oeste 0.8 -- -- 97
2019-05-28 09:00:00 11.7 7 Noroeste 17 Oeste 0.8 -- -- 98
2019-05-28 08:00:00 11.4 8 Noroeste 16 Noroeste 0 -- -- 99
2019-05-28 07:00:00 11.3 4 Noroeste 11 Norte 0 -- -- 99
2019-05-28 06:00:00 11.3 4 Noroeste 16 Noroeste 0.4 -- -- 99
2019-05-28 05:00:00 11.4 5 Noroeste 12 Noroeste 0 -- -- 98
2019-05-28 04:00:00 11.5 3 Noroeste 9 Norte 0.2 -- -- 98
2019-05-28 03:00:00 11.4 5 Noroeste 13 Norte 0 -- -- 98
2019-05-28 02:00:00 11.7 0 Calma 9 Norte 0 -- -- 95
2019-05-28 01:00:00 12.4 4 Noroeste 11 Oeste 0 -- -- 95
2019-05-28 00:00:00 12.6 0 Calma 9 Noroeste 0 -- -- 95
2019-05-27 23:00:00 13 6 Noroeste 14 Noroeste 0 -- -- 92
2019-05-27 22:00:00 13.4 10 Oeste 18 Noroeste 0 -- -- 91
2019-05-27 21:00:00 13.8 9 Oeste 24 Noroeste 0 -- -- 93
2019-05-27 20:00:00 14.1 8 Noroeste 24 Noroeste 0 -- -- 96
2019-05-27 19:00:00 14.6 9 Noroeste 27 Noroeste 0 -- -- 96
2019-05-27 18:00:00 14.9 12 Oeste 20 Oeste 0.4 -- -- 97
2019-05-27 17:00:00 14.9 10 Oeste 26 Noroeste 0.6 -- -- 98
2019-05-27 16:00:00 14.7 14 Noroeste 31 Noroeste 2 -- -- 99
2019-05-27 15:00:00 14.9 7 Noroeste 15 Norte 0.2 -- -- 97
2019-05-27 14:00:00 15 8 Noroeste 15 Noroeste 0 -- -- 97
2019-05-27 13:00:00 14 5 Norte 10 Norte 0.4 -- -- 97
2019-05-27 12:00:00 13.8 6 Norte 13 Noroeste 0 -- -- 92
2019-05-27 11:00:00 13.6 3 Noroeste 12 Oeste 0 -- -- 95
2019-05-27 10:00:00 12.9 5 Norte 10 Norte 0 -- -- 98
2019-05-27 09:00:00 12.6 4 Norte 11 Norte 0 -- -- 99
2019-05-27 08:00:00 12.4 6 Noroeste 12 Noroeste 0 -- -- 100
2019-05-27 07:00:00 12.3 3 Norte 10 Noroeste 0 -- -- 100
2019-05-27 06:00:00 12.3 0 Calma 9 Noroeste 0.2 -- -- 100
2019-05-27 05:00:00 12.4 0 Calma 4 Norte 0 -- -- 99
2019-05-27 04:00:00 12.5 0 Calma 5 Norte 0.4 -- -- 99
2019-05-27 03:00:00 12.4 3 Norte 9 Noroeste 0.2 -- -- 99
2019-05-27 02:00:00 12.6 4 Noroeste 10 Oeste 0.2 -- -- 99
2019-05-27 01:00:00 12.9 2 Noroeste 8 Noroeste 0 -- -- 98
2019-05-27 00:00:00 13 0 Calma 8 Norte 0.2 -- -- 98